Time;durP1;ratioP1;P1;durP2;ratioP2;P2;SDS_P1;SDS_P2;PMS_P1;PMS_P2;Temp;Humidity;BMP_temperature;BMP_pressure;BME280_temperature;BME280_humidity;BME280_pressure;Samples;Min_cycle;Max_cycle;Signal;HPM_P1;HPM_P2
2022/10/16 00:01:21;;;;;;;4.40;1.42;;;14.90;99.40;;;;;;5036231;28;20533;-72
2022/10/16 00:03:48;;;;;;;6.43;1.63;;;14.90;99.40;;;;;;5036089;28;20151;-74
2022/10/16 00:06:15;;;;;;;3.95;1.67;;;14.90;99.50;;;;;;5035895;28;20461;-73
2022/10/16 00:08:41;;;;;;;7.45;1.67;;;14.90;99.50;;;;;;5035945;28;20545;-73
2022/10/16 00:11:25;;;;;;;3.42;1.40;;;14.90;99.50;;;;;;5036120;28;20140;-73
2022/10/16 00:13:55;;;;;;;3.95;1.30;;;14.90;99.50;;;;;;5036073;28;20535;-73
2022/10/16 00:16:20;;;;;;;5.47;1.20;;;14.90;99.50;;;;;;5043304;28;20029;-73
2022/10/16 00:18:46;;;;;;;3.53;1.20;;;14.90;99.50;;;;;;5040116;28;20049;-75
2022/10/16 00:21:18;;;;;;;5.05;1.20;;;14.80;99.60;;;;;;5036275;28;20049;-75
2022/10/16 00:23:44;;;;;;;1.85;0.90;;;14.80;99.60;;;;;;5036482;28;20108;-75
2022/10/16 00:26:13;;;;;;;2.33;0.95;;;14.80;99.60;;;;;;5035965;28;20021;-75
2022/10/16 00:28:39;;;;;;;4.18;0.95;;;14.80;99.70;;;;;;5035577;28;20452;-75
2022/10/16 00:31:13;;;;;;;4.03;0.90;;;14.80;99.70;;;;;;5035825;28;20138;-75
2022/10/16 00:33:40;;;;;;;3.83;0.70;;;14.80;99.80;;;;;;5035702;28;20489;-75
2022/10/16 00:36:07;;;;;;;4.18;0.80;;;14.80;99.80;;;;;;5035301;28;20038;-75
2022/10/16 00:38:33;;;;;;;3.13;0.80;;;14.70;99.80;;;;;;5035875;28;20025;-74
2022/10/16 00:40:59;;;;;;;5.20;1.13;;;14.80;99.90;;;;;;5035539;28;20032;-75
2022/10/16 00:43:41;;;;;;;4.15;1.10;;;14.80;99.90;;;;;;5035439;28;20087;-75
2022/10/16 00:46:19;;;;;;;2.58;1.00;;;14.80;99.90;;;;;;5036118;28;20025;-75
2022/10/16 00:49:00;;;;;;;4.93;1.15;;;14.70;99.90;;;;;;5035206;28;20409;-75
2022/10/16 00:51:31;;;;;;;5.68;1.20;;;14.70;99.90;;;;;;5035446;28;20029;-74
2022/10/16 00:53:57;;;;;;;4.13;1.50;;;14.70;99.90;;;;;;5035352;28;20097;-74
2022/10/16 00:56:23;;;;;;;4.03;1.25;;;14.70;99.90;;;;;;5035442;28;20052;-75
2022/10/16 00:58:48;;;;;;;5.13;1.10;;;14.70;99.90;;;;;;5035232;28;20049;-75
2022/10/16 01:01:14;;;;;;;3.22;1.02;;;14.60;99.90;;;;;;5035155;28;20026;-74
2022/10/16 01:03:40;;;;;;;2.42;1.20;;;14.70;99.90;;;;;;5035109;28;20037;-74
2022/10/16 01:06:14;;;;;;;4.82;1.35;;;14.70;99.90;;;;;;5035116;28;20369;-73
2022/10/16 01:09:23;;;;;;;4.88;1.20;;;14.70;99.90;;;;;;5035080;28;20037;-74
2022/10/16 01:12:04;;;;;;;5.93;1.83;;;14.60;99.90;;;;;;5013237;28;20018;-73
2022/10/16 01:14:45;;;;;;;5.82;1.00;;;14.60;99.90;;;;;;5022113;28;20501;-73
2022/10/16 01:17:16;;;;;;;3.55;1.30;;;14.60;99.90;;;;;;5027524;28;20116;-74
2022/10/16 01:20:09;;;;;;;3.15;1.58;;;14.60;99.90;;;;;;5035041;28;20048;-73
2022/10/16 01:23:00;;;;;;;2.63;1.25;;;14.60;99.90;;;;;;5034699;28;20075;-74
2022/10/16 01:25:45;;;;;;;2.35;1.23;;;14.60;99.90;;;;;;5034507;28;20033;-74
2022/10/16 01:28:13;;;;;;;5.43;1.52;;;14.60;99.90;;;;;;5034602;28;20397;-74
2022/10/16 01:30:41;;;;;;;6.05;1.33;;;14.60;99.90;;;;;;5034577;28;20036;-74
2022/10/16 01:33:20;;;;;;;2.75;1.63;;;14.60;99.90;;;;;;5034554;28;20025;-74
2022/10/16 01:35:55;;;;;;;3.05;1.45;;;14.60;99.90;;;;;;5034656;28;20036;-74
2022/10/16 01:38:31;;;;;;;3.42;1.75;;;14.60;99.90;;;;;;5034657;28;20025;-74
2022/10/16 01:41:01;;;;;;;4.20;1.38;;;14.60;99.90;;;;;;5034378;28;20032;-74
2022/10/16 01:43:34;;;;;;;4.47;1.60;;;14.60;99.90;;;;;;5034371;28;20033;-72
2022/10/16 01:46:01;;;;;;;4.78;1.38;;;14.60;99.90;;;;;;5033772;28;20045;-74
2022/10/16 01:48:29;;;;;;;6.28;1.70;;;14.60;99.90;;;;;;5034100;28;20075;-74
2022/10/16 01:51:04;;;;;;;4.25;1.45;;;14.60;99.90;;;;;;5034056;28;20366;-74
2022/10/16 01:53:31;;;;;;;4.30;1.92;;;14.60;99.90;;;;;;5033977;28;20083;-74
2022/10/16 01:55:59;;;;;;;5.88;1.70;;;14.60;99.90;;;;;;5033525;28;20366;-74
2022/10/16 01:58:27;;;;;;;3.88;1.58;;;14.60;99.90;;;;;;5033602;28;20101;-74
2022/10/16 02:00:54;;;;;;;2.50;1.35;;;14.60;99.90;;;;;;5033725;28;20096;-73
2022/10/16 02:03:20;;;;;;;5.50;1.60;;;14.60;99.90;;;;;;5033798;28;20030;-74
2022/10/16 02:05:53;;;;;;;5.57;2.13;;;14.60;99.90;;;;;;5034041;28;20133;-73
2022/10/16 02:08:20;;;;;;;5.03;1.40;;;14.60;99.90;;;;;;5039682;28;20095;-73
2022/10/16 02:10:46;;;;;;;3.55;1.35;;;14.50;99.90;;;;;;5057425;28;20045;-74
2022/10/16 02:13:25;;;;;;;3.17;1.30;;;14.50;99.90;;;;;;5050731;28;20405;-74
2022/10/16 02:15:51;;;;;;;3.47;1.40;;;14.50;99.90;;;;;;5033894;28;20033;-75
2022/10/16 02:18:16;;;;;;;3.03;1.35;;;14.60;99.90;;;;;;5033450;28;20025;-74
2022/10/16 02:20:57;;;;;;;3.58;1.70;;;14.60;99.90;;;;;;5033665;28;20155;-74
2022/10/16 02:23:34;;;;;;;3.00;1.30;;;14.60;99.90;;;;;;5033069;28;20034;-73
2022/10/16 02:26:04;;;;;;;3.22;1.30;;;14.60;99.90;;;;;;5033684;28;20120;-74
2022/10/16 02:28:46;;;;;;;2.25;1.35;;;14.60;99.90;;;;;;5033121;28;20065;-74
2022/10/16 02:31:16;;;;;;;4.22;1.77;;;14.60;99.90;;;;;;5033392;28;20034;-74
2022/10/16 02:33:43;;;;;;;6.63;1.95;;;14.60;99.90;;;;;;5033603;28;20026;-74
2022/10/16 02:36:09;;;;;;;5.75;1.00;;;14.60;99.90;;;;;;5033576;28;20029;-74
2022/10/16 02:38:36;;;;;;;2.25;0.98;;;14.60;99.90;;;;;;5033328;28;20483;-74
2022/10/16 02:41:03;;;;;;;2.78;1.15;;;14.60;99.90;;;;;;5033547;28;20037;-73
2022/10/16 02:43:29;;;;;;;8.23;1.45;;;14.60;99.90;;;;;;5033054;28;20038;-73
2022/10/16 02:45:54;;;;;;;2.55;1.38;;;14.50;99.90;;;;;;5033542;28;20029;-74
2022/10/16 02:48:20;;;;;;;5.03;1.15;;;14.50;99.90;;;;;;5032945;28;20033;-74
2022/10/16 02:50:46;;;;;;;2.15;1.35;;;14.50;99.90;;;;;;5033152;28;20072;-74
2022/10/16 02:53:11;;;;;;;2.95;0.93;;;14.50;99.90;;;;;;5033310;28;20091;-74
2022/10/16 02:55:37;;;;;;;4.95;1.30;;;14.50;99.90;;;;;;5033455;28;20028;-73
2022/10/16 02:58:03;;;;;;;2.13;1.02;;;14.50;99.90;;;;;;5034585;28;20048;-74
2022/10/16 03:00:28;;;;;;;2.85;1.40;;;14.50;99.90;;;;;;5036301;28;20018;-74
2022/10/16 03:02:54;;;;;;;1.85;1.10;;;14.50;99.90;;;;;;5036995;28;20045;-74
2022/10/16 03:05:19;;;;;;;2.95;1.13;;;14.50;99.90;;;;;;5037363;28;20026;-74
2022/10/16 03:07:45;;;;;;;4.50;1.50;;;14.50;99.90;;;;;;5046570;28;20037;-72
2022/10/16 03:10:11;;;;;;;2.33;1.25;;;14.40;99.90;;;;;;5037740;28;20084;-74
2022/10/16 03:12:36;;;;;;;4.22;1.10;;;14.50;99.90;;;;;;5036915;28;20381;-74
2022/10/16 03:15:03;;;;;;;2.25;1.10;;;14.40;99.90;;;;;;5036766;28;20100;-74
2022/10/16 03:17:28;;;;;;;2.20;1.00;;;14.50;99.90;;;;;;5036653;28;20500;-74
2022/10/16 03:19:54;;;;;;;4.15;1.52;;;14.40;99.90;;;;;;5036891;28;20025;-74
2022/10/16 03:22:19;;;;;;;1.30;0.73;;;14.40;99.90;;;;;;5036826;28;20544;-74
2022/10/16 03:24:45;;;;;;;3.67;1.13;;;14.40;99.90;;;;;;5036287;28;20116;-74
2022/10/16 03:27:10;;;;;;;3.75;1.15;;;14.40;99.90;;;;;;5036446;28;20021;-74
2022/10/16 03:29:36;;;;;;;1.98;0.75;;;14.40;99.90;;;;;;5036364;28;20556;-74
2022/10/16 03:32:02;;;;;;;2.42;0.90;;;14.40;99.90;;;;;;5036166;28;20067;-75
2022/10/16 03:34:27;;;;;;;4.10;1.20;;;14.40;99.90;;;;;;5036348;28;20032;-74
2022/10/16 03:36:53;;;;;;;3.78;1.50;;;14.40;99.90;;;;;;5036331;28;20026;-74
2022/10/16 03:39:19;;;;;;;2.30;1.08;;;14.40;99.90;;;;;;5034921;28;20060;-74
2022/10/16 03:41:46;;;;;;;1.83;1.00;;;14.40;99.90;;;;;;5036453;28;20021;-74
2022/10/16 03:44:12;;;;;;;4.07;1.05;;;14.40;99.90;;;;;;5036038;28;20385;-74
2022/10/16 03:46:37;;;;;;;3.13;1.20;;;14.30;99.90;;;;;;5036204;28;20021;-75
2022/10/16 03:49:03;;;;;;;1.67;0.80;;;14.40;99.90;;;;;;5036375;28;20033;-73
2022/10/16 03:51:28;;;;;;;4.25;0.98;;;14.30;99.90;;;;;;5036345;28;20028;-74
2022/10/16 03:53:54;;;;;;;3.22;1.45;;;14.40;99.90;;;;;;5036406;28;20091;-74
2022/10/16 03:56:19;;;;;;;2.40;0.90;;;14.30;99.90;;;;;;5036047;28;20091;-74
2022/10/16 03:58:45;;;;;;;2.25;0.93;;;14.30;99.90;;;;;;5036320;28;20026;-73
2022/10/16 04:01:11;;;;;;;4.18;1.08;;;14.30;99.90;;;;;;5037144;28;20025;-74
2022/10/16 04:03:36;;;;;;;3.45;0.98;;;14.30;99.90;;;;;;5042217;28;20048;-74
2022/10/16 04:06:02;;;;;;;2.15;0.95;;;14.30;99.90;;;;;;5054724;28;20055;-75
2022/10/16 04:08:27;;;;;;;3.35;1.10;;;14.30;99.90;;;;;;5042208;28;20029;-74
2022/10/16 04:10:53;;;;;;;4.32;1.25;;;14.30;99.90;;;;;;5035245;28;20112;-74
2022/10/16 04:13:19;;;;;;;2.10;0.80;;;14.30;99.90;;;;;;5035834;28;20026;-74
2022/10/16 04:15:47;;;;;;;3.15;1.10;;;14.30;99.90;;;;;;5036023;28;20036;-74
2022/10/16 04:18:13;;;;;;;3.03;0.98;;;14.30;99.90;;;;;;5035733;28;20025;-74
2022/10/16 04:20:38;;;;;;;2.72;0.80;;;14.30;99.90;;;;;;5035830;28;20101;-74
2022/10/16 04:23:04;;;;;;;3.47;1.38;;;14.30;99.90;;;;;;5035537;28;20061;-74
2022/10/16 04:25:32;;;;;;;3.08;0.88;;;14.40;99.90;;;;;;5035677;28;20028;-74
2022/10/16 04:27:57;;;;;;;4.15;0.98;;;14.30;99.90;;;;;;5035496;28;20128;-74
2022/10/16 04:30:23;;;;;;;2.53;0.80;;;14.30;99.90;;;;;;5035225;28;20079;-75
2022/10/16 04:32:52;;;;;;;2.35;1.10;;;14.30;99.90;;;;;;5035629;28;20028;-74
2022/10/16 04:35:20;;;;;;;3.50;1.05;;;14.30;99.90;;;;;;5035591;28;20028;-73
2022/10/16 04:37:45;;;;;;;2.75;0.90;;;14.40;99.90;;;;;;5035618;28;20033;-74
2022/10/16 04:40:11;;;;;;;5.88;0.90;;;14.40;99.90;;;;;;5035364;28;20025;-74
2022/10/16 04:42:37;;;;;;;2.42;0.88;;;14.40;99.90;;;;;;5034927;28;20053;-73
2022/10/16 04:45:04;;;;;;;5.97;1.08;;;14.30;99.90;;;;;;5035147;28;20041;-74
2022/10/16 04:47:30;;;;;;;3.60;0.90;;;14.30;99.90;;;;;;5035339;28;20025;-74
2022/10/16 04:49:56;;;;;;;3.13;1.08;;;14.30;99.90;;;;;;5035253;28;20052;-74
2022/10/16 04:52:24;;;;;;;4.85;0.77;;;14.30;99.90;;;;;;5034784;28;20033;-74
2022/10/16 04:54:50;;;;;;;1.55;0.93;;;14.30;99.90;;;;;;5035253;28;20018;-74
2022/10/16 04:57:16;;;;;;;1.92;1.00;;;14.30;99.90;;;;;;5035189;28;20489;-74
2022/10/16 04:59:42;;;;;;;1.88;0.65;;;14.30;99.90;;;;;;5038675;28;20028;-74
2022/10/16 05:02:07;;;;;;;2.95;1.55;;;14.20;99.90;;;;;;5057256;28;20064;-74
2022/10/16 05:04:33;;;;;;;3.28;0.90;;;14.30;99.90;;;;;;5045230;28;20152;-74
2022/10/16 05:06:59;;;;;;;1.92;0.88;;;14.30;99.90;;;;;;5034930;28;20021;-75
2022/10/16 05:09:24;;;;;;;1.95;0.80;;;14.30;99.90;;;;;;5034711;28;20034;-76
2022/10/16 05:11:50;;;;;;;2.97;0.70;;;14.30;99.90;;;;;;5035152;28;20045;-76
2022/10/16 05:14:18;;;;;;;2.70;0.80;;;14.30;99.90;;;;;;5034476;28;20485;-74
2022/10/16 05:16:44;;;;;;;2.75;0.85;;;14.30;99.90;;;;;;5034757;28;20029;-75
2022/10/16 05:19:10;;;;;;;2.95;0.70;;;14.30;99.90;;;;;;5034109;28;20036;-74
2022/10/16 05:21:35;;;;;;;4.55;0.90;;;14.30;99.90;;;;;;5033752;28;20108;-74
2022/10/16 05:24:01;;;;;;;2.20;0.82;;;14.30;99.90;;;;;;5034289;28;20033;-74
2022/10/16 05:26:26;;;;;;;4.43;1.02;;;14.30;99.90;;;;;;5034603;28;20052;-76
2022/10/16 05:28:52;;;;;;;5.88;0.82;;;14.30;99.90;;;;;;5033620;28;20401;-74
2022/10/16 05:31:20;;;;;;;3.50;0.75;;;14.20;99.90;;;;;;5034613;28;20049;-74
2022/10/16 05:33:46;;;;;;;5.18;0.80;;;14.20;99.90;;;;;;5034505;28;20026;-74
2022/10/16 05:36:12;;;;;;;2.85;0.90;;;14.20;99.90;;;;;;5034020;28;20018;-75
2022/10/16 05:38:38;;;;;;;4.53;1.00;;;14.10;99.90;;;;;;5034200;28;20120;-76
2022/10/16 05:41:05;;;;;;;2.15;1.02;;;14.10;99.90;;;;;;5034404;28;20485;-76
2022/10/16 05:43:31;;;;;;;4.05;0.90;;;14.10;99.90;;;;;;5034219;28;20037;-75
2022/10/16 05:46:05;;;;;;;2.05;1.00;;;14.00;99.90;;;;;;5034066;28;20025;-76
2022/10/16 05:48:31;;;;;;;1.75;1.00;;;14.00;99.90;;;;;;5034226;28;20437;-75
2022/10/16 05:51:01;;;;;;;2.35;1.02;;;13.90;99.90;;;;;;5034053;28;20045;-74
2022/10/16 05:53:31;;;;;;;2.00;0.63;;;13.90;99.90;;;;;;5034223;28;20109;-73
2022/10/16 05:56:00;;;;;;;4.60;1.50;;;13.90;99.90;;;;;;5048524;28;20056;-73
2022/10/16 05:58:29;;;;;;;3.35;1.33;;;13.90;99.90;;;;;;5059039;28;20017;-74
2022/10/16 06:00:57;;;;;;;3.28;0.88;;;13.90;99.90;;;;;;5050639;28;20017;-74
2022/10/16 06:03:23;;;;;;;1.83;1.00;;;13.90;99.90;;;;;;5034421;28;20044;-74
2022/10/16 06:05:49;;;;;;;1.73;0.90;;;13.90;99.90;;;;;;5033857;28;20100;-73
2022/10/16 06:08:15;;;;;;;2.65;1.10;;;13.90;99.90;;;;;;5033583;28;20487;-74
2022/10/16 06:10:41;;;;;;;1.70;1.05;;;13.90;99.90;;;;;;5033604;28;20025;-74
2022/10/16 06:13:06;;;;;;;2.05;1.00;;;13.90;99.90;;;;;;5033760;28;20122;-74
2022/10/16 06:15:32;;;;;;;3.08;1.10;;;13.90;99.90;;;;;;5033830;28;20457;-73
2022/10/16 06:17:57;;;;;;;5.90;1.50;;;13.80;99.90;;;;;;5033704;28;20018;-74
2022/10/16 06:20:23;;;;;;;2.17;0.95;;;13.90;99.90;;;;;;5033531;28;20442;-73
2022/10/16 06:22:48;;;;;;;6.90;1.17;;;13.90;99.90;;;;;;5033667;28;20111;-73
2022/10/16 06:25:14;;;;;;;4.65;1.10;;;13.90;99.90;;;;;;5033299;28;20025;-74
2022/10/16 06:27:40;;;;;;;4.70;1.10;;;13.90;99.90;;;;;;5033462;28;20187;-74
2022/10/16 06:30:07;;;;;;;3.08;1.17;;;13.90;99.90;;;;;;5033308;28;20049;-74
2022/10/16 06:32:32;;;;;;;4.72;1.10;;;13.90;99.90;;;;;;5032853;28;20017;-74
2022/10/16 06:35:04;;;;;;;2.75;1.00;;;13.90;99.90;;;;;;5033247;28;20025;-74
2022/10/16 06:37:30;;;;;;;3.88;1.20;;;13.90;99.90;;;;;;5033289;28;20026;-74
2022/10/16 06:39:59;;;;;;;3.17;1.52;;;13.90;99.90;;;;;;5033566;28;20087;-73
2022/10/16 06:42:25;;;;;;;3.28;1.40;;;13.90;99.90;;;;;;5032899;28;20109;-73
2022/10/16 06:44:51;;;;;;;2.30;1.00;;;14.00;99.90;;;;;;5033547;28;20057;-75
2022/10/16 06:47:16;;;;;;;1.80;1.00;;;14.00;99.90;;;;;;5033545;28;20049;-74
2022/10/16 06:49:42;;;;;;;4.40;1.10;;;14.00;99.90;;;;;;5033207;28;20071;-74
2022/10/16 06:52:08;;;;;;;3.30;1.35;;;14.00;99.90;;;;;;5033225;28;20022;-74
2022/10/16 06:54:33;;;;;;;3.15;1.20;;;14.00;99.90;;;;;;5044579;28;20037;-73
2022/10/16 06:56:59;;;;;;;2.83;1.23;;;14.00;99.90;;;;;;5052133;28;20034;-74
2022/10/16 06:59:25;;;;;;;6.10;1.55;;;14.00;99.90;;;;;;5038489;28;20037;-74
2022/10/16 07:01:51;;;;;;;1.45;0.98;;;14.10;99.90;;;;;;5033353;28;20424;-74
2022/10/16 07:04:16;;;;;;;5.32;1.20;;;14.10;99.90;;;;;;5032950;28;20044;-74
2022/10/16 07:06:42;;;;;;;2.30;1.20;;;14.10;99.90;;;;;;5032871;28;20060;-74
2022/10/16 07:09:10;;;;;;;2.63;1.00;;;14.10;99.90;;;;;;5033263;28;20088;-74
2022/10/16 07:11:38;;;;;;;5.22;0.90;;;14.10;99.90;;;;;;5032984;28;20036;-74
2022/10/16 07:14:04;;;;;;;2.45;1.20;;;14.10;99.90;;;;;;5032879;28;20057;-74
2022/10/16 07:16:32;;;;;;;3.08;1.13;;;14.10;99.90;;;;;;5032861;28;20469;-74
2022/10/16 07:18:59;;;;;;;2.13;0.95;;;14.10;99.90;;;;;;5033237;28;20075;-74
2022/10/16 07:21:28;;;;;;;4.47;1.00;;;14.20;99.90;;;;;;5032775;28;20094;-74
2022/10/16 07:23:59;;;;;;;3.17;1.08;;;14.10;99.90;;;;;;5032703;28;20037;-74
2022/10/16 07:26:26;;;;;;;3.95;1.05;;;14.10;99.90;;;;;;5032944;28;20029;-75
2022/10/16 07:28:52;;;;;;;6.47;1.05;;;14.20;99.90;;;;;;5032583;28;20049;-76
2022/10/16 07:31:19;;;;;;;2.70;1.40;;;14.20;99.90;;;;;;5032958;28;20060;-74
2022/10/16 07:33:47;;;;;;;3.40;1.00;;;14.20;99.90;;;;;;5032757;28;20056;-76
2022/10/16 07:36:14;;;;;;;5.78;1.20;;;14.20;99.90;;;;;;5033347;28;20111;-78
2022/10/16 07:38:42;;;;;;;1.95;1.00;;;14.20;99.90;;;;;;5032910;28;20505;-78
2022/10/16 07:41:10;;;;;;;5.05;1.23;;;14.30;99.90;;;;;;5033019;28;20034;-77
2022/10/16 07:43:36;;;;;;;8.27;1.15;;;14.30;99.90;;;;;;5033059;28;20091;-77
2022/10/16 07:46:02;;;;;;;5.47;1.23;;;14.40;99.90;;;;;;5035671;28;20033;-78
2022/10/16 07:48:29;;;;;;;3.03;0.90;;;14.40;99.90;;;;;;5035025;28;20025;-77
2022/10/16 07:51:03;;;;;;;3.25;0.75;;;14.50;99.90;;;;;;5046461;28;20005;-77
2022/10/16 07:53:29;;;;;;;3.20;1.20;;;14.40;99.90;;;;;;5051103;28;20056;-76
2022/10/16 07:56:03;;;;;;;5.07;1.13;;;14.50;99.90;;;;;;5040892;28;20021;-76
2022/10/16 07:58:29;;;;;;;3.05;1.00;;;14.60;99.90;;;;;;5032489;28;20025;-76
2022/10/16 08:00:56;;;;;;;3.15;1.20;;;14.70;99.90;;;;;;5034845;28;20049;-77
2022/10/16 08:03:21;;;;;;;6.20;1.33;;;14.70;99.90;;;;;;5034888;28;20037;-77
2022/10/16 08:05:47;;;;;;;4.75;1.23;;;14.70;99.90;;;;;;5036177;28;20026;-75
2022/10/16 08:08:13;;;;;;;6.60;1.50;;;14.70;99.90;;;;;;5036734;28;20026;-78
2022/10/16 08:10:39;;;;;;;3.78;1.13;;;14.80;99.90;;;;;;5035949;28;20119;-79
2022/10/16 08:13:05;;;;;;;5.22;1.77;;;14.90;99.90;;;;;;5036070;28;20461;-77
2022/10/16 08:15:31;;;;;;;3.38;1.33;;;15.00;99.90;;;;;;5035807;28;20029;-77
2022/10/16 08:17:58;;;;;;;4.38;1.08;;;15.10;99.90;;;;;;5035537;28;20025;-77
2022/10/16 08:20:31;;;;;;;4.90;1.00;;;15.10;99.90;;;;;;5035887;28;20029;-78
2022/10/16 08:22:58;;;;;;;4.75;0.80;;;15.10;99.90;;;;;;5035684;28;20042;-77
2022/10/16 08:25:24;;;;;;;4.88;1.17;;;15.20;99.90;;;;;;5035505;28;20029;-78
2022/10/16 08:27:50;;;;;;;6.25;1.52;;;15.30;99.90;;;;;;5035612;28;20058;-78
2022/10/16 08:30:23;;;;;;;6.25;1.00;;;15.40;99.90;;;;;;5035942;28;20025;-80
2022/10/16 08:32:49;;;;;;;3.88;0.95;;;15.30;99.90;;;;;;5035721;28;20025;-77
2022/10/16 08:35:15;;;;;;;3.30;1.23;;;15.40;99.90;;;;;;5035564;28;20034;-79
2022/10/16 08:37:42;;;;;;;3.85;1.17;;;15.40;99.90;;;;;;5035928;28;20082;-83
2022/10/16 08:40:19;;;;;;;4.53;1.27;;;15.40;99.90;;;;;;5035262;28;20017;-75
2022/10/16 08:43:21;;;;;;;7.72;1.30;;;15.40;99.90;;;;;;5035347;28;20025;-77
2022/10/16 08:46:26;;;;;;;4.63;1.15;;;15.50;99.90;;;;;;5035993;28;20045;-75
2022/10/16 08:48:54;;;;;;;3.35;0.85;;;15.50;99.90;;;;;;5050169;28;20021;-76
2022/10/16 08:51:22;;;;;;;4.07;0.80;;;15.50;99.90;;;;;;5036364;28;20026;-75
2022/10/16 08:53:57;;;;;;;4.10;1.23;;;15.50;99.90;;;;;;5034781;28;20029;-76
2022/10/16 08:56:24;;;;;;;8.18;0.98;;;15.60;99.90;;;;;;5035006;28;20026;-75
2022/10/16 08:58:54;;;;;;;3.83;0.73;;;15.70;99.90;;;;;;5034554;28;20469;-76
2022/10/16 09:01:23;;;;;;;4.15;0.75;;;15.70;99.90;;;;;;5034883;28;20033;-75
2022/10/16 09:03:57;;;;;;;5.53;1.48;;;15.80;99.90;;;;;;5034109;28;20156;-74
2022/10/16 09:06:45;;;;;;;3.35;0.60;;;15.90;99.90;;;;;;5034426;28;20020;-77
2022/10/16 09:09:53;;;;;;;4.97;1.10;;;16.00;99.90;;;;;;5032180;28;20120;-75
2022/10/16 09:12:33;;;;;;;3.78;1.00;;;16.10;99.90;;;;;;5015917;28;20072;-75
2022/10/16 09:15:35;;;;;;;4.82;1.10;;;16.20;99.90;;;;;;5033321;28;20025;-75
2022/10/16 09:18:36;;;;;;;3.30;0.65;;;16.20;99.60;;;;;;5034210;28;20044;-75
2022/10/16 09:21:25;;;;;;;5.50;0.65;;;16.20;99.30;;;;;;5034165;28;20025;-72
2022/10/16 09:23:53;;;;;;;3.45;0.90;;;16.30;99.30;;;;;;5034441;28;20029;-72
2022/10/16 09:26:21;;;;;;;2.95;0.77;;;16.40;98.90;;;;;;5034483;28;20037;-72
2022/10/16 09:28:47;;;;;;;7.65;1.10;;;16.50;98.80;;;;;;5034049;28;20041;-72
2022/10/16 09:31:17;;;;;;;7.07;0.77;;;16.60;98.80;;;;;;5034338;28;20026;-73
2022/10/16 09:33:45;;;;;;;5.20;1.20;;;16.60;98.40;;;;;;5034553;28;20033;-74
2022/10/16 09:36:12;;;;;;;5.38;0.80;;;16.70;98.60;;;;;;5034340;28;20079;-74
2022/10/16 09:38:38;;;;;;;20.23;1.20;;;16.70;98.30;;;;;;5034024;28;20492;-73
2022/10/16 09:41:15;;;;;;;8.63;1.83;;;16.80;98.50;;;;;;5034157;28;20029;-73
2022/10/16 09:43:48;;;;;;;8.05;1.98;;;16.90;98.00;;;;;;5043466;28;20083;-72
2022/10/16 09:46:28;;;;;;;8.55;1.30;;;17.00;98.20;;;;;;5043926;28;20032;-76
2022/10/16 09:49:18;;;;;;;9.43;1.30;;;17.00;98.10;;;;;;5033847;28;20036;-78
2022/10/16 09:51:44;;;;;;;6.95;1.60;;;17.10;97.80;;;;;;5033967;28;20047;-75
2022/10/16 09:54:09;;;;;;;8.40;1.42;;;17.10;97.70;;;;;;5033791;28;20025;-75
2022/10/16 09:56:38;;;;;;;5.32;1.20;;;17.20;97.80;;;;;;5033805;28;20090;-74
2022/10/16 09:59:15;;;;;;;6.90;1.02;;;17.20;97.80;;;;;;5033968;28;20052;-76
2022/10/16 10:01:46;;;;;;;4.72;1.00;;;17.20;97.70;;;;;;5033653;28;20029;-74
2022/10/16 10:04:12;;;;;;;8.80;0.80;;;17.30;97.30;;;;;;5033788;28;20124;-73
2022/10/16 10:06:48;;;;;;;9.82;0.90;;;17.30;97.20;;;;;;5033836;28;20025;-74
2022/10/16 10:09:29;;;;;;;9.20;1.10;;;17.40;97.00;;;;;;5033024;28;20035;-74
2022/10/16 10:12:02;;;;;;;7.47;1.58;;;17.50;97.30;;;;;;5033565;28;20033;-74
2022/10/16 10:14:33;;;;;;;9.80;1.15;;;17.60;97.20;;;;;;5033592;28;20029;-72
2022/10/16 10:17:15;;;;;;;8.65;1.23;;;17.70;96.80;;;;;;5033641;28;20097;-74
2022/10/16 10:19:54;;;;;;;6.75;1.27;;;17.80;96.80;;;;;;5033560;28;20025;-74
2022/10/16 10:22:38;;;;;;;6.60;1.17;;;17.90;96.60;;;;;;5033748;28;20022;-75
2022/10/16 10:25:13;;;;;;;11.18;1.42;;;18.00;96.50;;;;;;5033410;28;20032;-76
2022/10/16 10:28:06;;;;;;;9.02;1.48;;;18.10;96.40;;;;;;5033428;28;20042;-75
2022/10/16 10:30:59;;;;;;;9.15;1.20;;;18.20;96.30;;;;;;5033596;28;20033;-75
2022/10/16 10:33:30;;;;;;;8.32;1.00;;;18.40;95.90;;;;;;5033054;28;20501;-75
2022/10/16 10:36:05;;;;;;;9.55;1.30;;;18.50;95.30;;;;;;5033173;28;20075;-74
2022/10/16 10:38:42;;;;;;;8.93;0.95;;;18.50;94.60;;;;;;5034022;28;20381;-76
2022/10/16 10:41:20;;;;;;;13.00;1.15;;;18.50;94.30;;;;;;5050440;28;20083;-75
2022/10/16 10:43:57;;;;;;;13.93;1.80;;;18.50;94.20;;;;;;5033694;28;20037;-74
2022/10/16 10:46:56;;;;;;;9.57;1.42;;;18.60;93.90;;;;;;5033580;28;20096;-76
2022/10/16 10:49:41;;;;;;;7.97;1.30;;;18.60;92.70;;;;;;5033424;28;20113;-75
2022/10/16 10:52:43;;;;;;;8.38;1.15;;;18.60;93.20;;;;;;5032055;28;20061;-75
2022/10/16 10:55:32;;;;;;;10.43;1.50;;;18.70;93.30;;;;;;5033498;28;20114;-75
2022/10/16 10:58:29;;;;;;;13.52;1.23;;;18.80;93.00;;;;;;5033116;28;20033;-76
2022/10/16 11:01:13;;;;;;;11.18;2.10;;;18.90;92.90;;;;;;5033466;28;20120;-75
2022/10/16 11:04:16;;;;;;;14.25;1.50;;;18.90;92.30;;;;;;5033200;28;20045;-75
2022/10/16 11:06:50;;;;;;;9.70;0.88;;;18.80;92.10;;;;;;5031864;28;20369;-74
2022/10/16 11:09:21;;;;;;;12.23;1.25;;;18.70;92.00;;;;;;5033566;28;20041;-74
2022/10/16 11:11:53;;;;;;;11.30;1.10;;;18.70;91.90;;;;;;5033387;28;20049;-75
2022/10/16 11:14:44;;;;;;;10.95;1.20;;;18.60;91.80;;;;;;5033450;28;20127;-75
2022/10/16 11:17:21;;;;;;;9.48;1.00;;;18.70;92.00;;;;;;5022837;28;20037;-75
2022/10/16 11:20:01;;;;;;;9.57;1.10;;;18.80;91.70;;;;;;5035779;28;20021;-75
2022/10/16 11:22:37;;;;;;;13.32;1.30;;;18.80;91.70;;;;;;5036898;28;20114;-75
2022/10/16 11:25:23;;;;;;;13.32;1.42;;;18.90;91.20;;;;;;5036848;28;20487;-75
2022/10/16 11:28:01;;;;;;;8.80;1.15;;;19.00;91.50;;;;;;5036691;28;20044;-74
2022/10/16 11:30:38;;;;;;;6.00;0.70;;;19.00;90.80;;;;;;5037075;28;20025;-75
2022/10/16 11:33:35;;;;;;;11.20;1.50;;;19.00;91.00;;;;;;5040455;28;20055;-75
2022/10/16 11:36:08;;;;;;;13.10;0.98;;;19.00;90.40;;;;;;5058890;28;20033;-75
2022/10/16 11:38:56;;;;;;;9.82;1.20;;;19.20;90.60;;;;;;5052206;28;20110;-76
2022/10/16 11:41:29;;;;;;;12.95;1.33;;;19.10;89.70;;;;;;5036728;28;20026;-75
2022/10/16 11:44:03;;;;;;;11.50;1.15;;;19.00;89.30;;;;;;5035078;28;20453;-75
2022/10/16 11:46:31;;;;;;;7.80;0.98;;;19.00;89.90;;;;;;5035067;28;20021;-75
2022/10/16 11:49:07;;;;;;;9.65;1.27;;;19.10;90.20;;;;;;5034887;28;20026;-75
2022/10/16 11:51:57;;;;;;;9.57;1.30;;;19.20;90.20;;;;;;5032207;28;20047;-74
2022/10/16 11:54:50;;;;;;;6.05;0.90;;;19.20;89.10;;;;;;5034034;28;20345;-74
2022/10/16 11:57:23;;;;;;;;;;;19.10;89.90;;;;;;5033384;28;20055;-75
2022/10/16 11:59:55;;;;;;;9.20;1.00;;;19.20;89.20;;;;;;5034664;28;19915;-75
2022/10/16 12:02:30;;;;;;;9.65;1.65;;;19.30;88.70;;;;;;5035208;28;20437;-74
2022/10/16 12:05:22;;;;;;;9.02;1.27;;;19.30;88.20;;;;;;5033063;28;20029;-75
2022/10/16 12:08:11;;;;;;;8.48;1.00;;;19.30;86.10;;;;;;5032062;28;20481;-74
2022/10/16 12:10:38;;;;;;;10.70;1.10;;;19.20;86.70;;;;;;5033032;28;20034;-74
2022/10/16 12:13:36;;;;;;;6.63;0.75;;;19.20;87.00;;;;;;5035340;28;20029;-74
2022/10/16 12:16:13;;;;;;;10.05;0.80;;;19.30;87.30;;;;;;5034145;28;20071;-74
2022/10/16 12:18:41;;;;;;;10.85;1.10;;;19.40;86.60;;;;;;5035678;28;20112;-73
2022/10/16 12:21:15;;;;;;;7.78;1.40;;;19.40;86.20;;;;;;5035818;28;20029;-75
2022/10/16 12:23:55;;;;;;;11.60;1.05;;;19.50;86.70;;;;;;5035900;28;20033;-74
2022/10/16 12:26:38;;;;;;;8.68;0.90;;;19.50;86.90;;;;;;5036047;28;20032;-75
2022/10/16 12:29:40;;;;;;;10.60;0.90;;;19.70;86.00;;;;;;5035772;28;20136;-74
2022/10/16 12:32:26;;;;;;;11.57;1.38;;;19.80;85.50;;;;;;5056433;28;20032;-74
2022/10/16 12:34:55;;;;;;;8.07;1.10;;;19.90;85.20;;;;;;5045763;28;20032;-74
2022/10/16 12:37:25;;;;;;;8.98;1.45;;;19.90;85.50;;;;;;5035254;28;20152;-74
2022/10/16 12:39:53;;;;;;;6.85;1.08;;;19.90;84.90;;;;;;5035294;28;20017;-75
2022/10/16 12:42:29;;;;;;;6.88;1.05;;;20.00;84.00;;;;;;5035424;28;20030;-75
2022/10/16 12:44:56;;;;;;;10.13;1.40;;;20.00;83.80;;;;;;5035278;28;20116;-75
2022/10/16 12:47:31;;;;;;;5.93;0.95;;;20.10;84.40;;;;;;5035189;28;20488;-76
2022/10/16 12:49:57;;;;;;;7.85;1.45;;;20.20;84.40;;;;;;5035166;28;20036;-75
2022/10/16 12:52:44;;;;;;;11.77;1.45;;;20.30;83.40;;;;;;5034767;28;20025;-76
2022/10/16 12:55:17;;;;;;;7.22;1.15;;;20.40;83.90;;;;;;5032464;28;20030;-76
2022/10/16 12:58:16;;;;;;;8.55;1.02;;;20.50;82.70;;;;;;5035043;28;20064;-75
2022/10/16 13:00:41;;;;;;;11.80;1.00;;;20.50;82.60;;;;;;5033894;28;20519;-76
2022/10/16 13:03:25;;;;;;;7.85;1.35;;;20.70;83.40;;;;;;5034395;28;20042;-77
2022/10/16 13:06:02;;;;;;;7.57;1.15;;;20.80;82.10;;;;;;5032363;28;20424;-76
2022/10/16 13:08:45;;;;;;;15.50;1.35;;;20.80;80.90;;;;;;5031923;28;20083;-75